Baltimore, MD (21201)

4:51 PM EST on March 01, 2017 (GMT -0500)
Bachstraße | | Change Station
Active Advisory: Wind Advisory

Elev 0 ft 39.28 °N, 76.62 °W | Updated 5 minutes ago

Mostly Cloudy
Mostly Cloudy
70.5 °F
Feels Like 77 °F
N
1.9
Wind Variable Wind from WSW
Gusts 5.6 mph

Today
High -- | Low -- °F
--% Chance of Precip.
Yesterday
High -- | Low -- °F
Precip. -- in
Pressure 29.56 in
Visibility 10.0 miles
Clouds Few 9000 ft
Mostly Cloudy 11000 ft
Overcast 16000 ft
Heat Index 77 °F
Dew Point 51 °F
Humidity 50%
Rainfall 0.01 in
Snow Depth Not available.
6:38 AM 5:59 PM
Waxing Crescent, 13% visible
METAR KBWI 012054Z 21016G23KT 10SM FEW090 BKN110 OVC160 21/09 A2956 RMK AO2 RAB21E32 SLP009 VIRGA N-OHD-S P0000 60001 T02060094 58017
Pressure 29.56 in
Visibility 10.0 miles
Clouds Few 9000 ft
Mostly Cloudy 11000 ft
Overcast 16000 ft
Heat Index 77 °F
Dew Point 51 °F
Humidity 50%
Rainfall 0.01 in
Snow Depth Not available.
6:38 AM 5:59 PM
Waxing Crescent, 13% visible
METAR KBWI 012054Z 21016G23KT 10SM FEW090 BKN110 OVC160 21/09 A2956 RMK AO2 RAB21E32 SLP009 VIRGA N-OHD-S P0000 60001 T02060094 58017

Get Your Daily Forecast Email!

Thanks for signing up!

Be on the lookout for a verification email in your inbox.

You'll start receiving the daily forecast at 8 AM.

×

10-Day Weather Forecast

Almanac

Astronomy

Mar. 01, 2017 Rise Set
Actual Time
Civil Twilight
Nautical Twilight
Astronomical Twilight
Moon
Length of Visible Light
Length of Day
Tomorrow will be .
, % of the Moon is Illuminated

Today's Extremes

State Highs State Lows

Community

WunderPhotos

Upload Photos

1,962,540 photos uploaded!

WunderBlog® & News

Nearby

Air Quality

  Air Quality AQ Index Pollutant
Not available.

Snow Depth

Station Depth Elevation

Earthquake Activity

City Distance Mag. Time & Date
Minimum magnitude displayed is 2.5.

Coastal Water Temperatures

Place Temperature

Stations

Nearby Weather Stations

Station Location Temp. Windchill Dew Point Humidity Wind Precip. Elev Updated Type
                   

Watches & Warnings

Wind Advisory
Issued: 4:20 PM EST Mar. 1, 2017 – National Weather Service

... Wind Advisory in effect from 10 PM this evening to 10 am EST
Thursday...

The National Weather Service in Baltimore MD/Washington has
issued a Wind Advisory, which is in effect from 10 PM this
evening to 10 am EST Thursday.

* Timing... late this evening through mid-morning Thursday.

* Winds... west to northwest 20 to 30 mph with gusts around 50 to
55 mph.

* Impacts... strong winds may blow down limbs, trees, and power
lines. Scattered power outages are possible.

Precautionary/preparedness actions...

A Wind Advisory means that wind gusts of 50 to 55 mph are
expected. Winds this strong can make driving difficult, especially
for high profile vehicles.